Latest Weather Observations for Canberra

IDN60901

Issued at 7:41 pm EST Sunday 19 August 2018 (issued every 10 minutes, with the page automatically refreshed every 10 minutes)

About weather observations | Map of Canberra area stations | Latest observations for Canberra area | Other Formats
Station Details ID: 070351 Name: CANBERRA AIRPORT Lat: -35.31 Lon: 149.20 Height: 577.05 m
Data from the previous 72 hours. | See also: Recent months at Canberra
Date/Time
EST
Temp
°C
App
Temp
°C
Dew
Point
°C
Rel
Hum
%
Delta-T
°C
Wind Press
QNH
hPa
Press
MSL
hPa
Rain since
9am
mm
Dir  Spd
km/h
Gust
km/h
Spd
kts
Gust
kts
19/07:30pm 3.3 0.0 0.2 80 1.2 N 7 11 4 6 1017.3 1018.1 0.0
19/07:00pm 2.8 -0.9 0.0 82 1.1 NNE 9 13 5 7 1016.9 1017.7 0.0
19/06:30pm 3.1 -0.4 1.2 87 0.8 ENE 9 11 5 6 1016.5 1017.3 0.0
19/06:00pm 4.1 1.5 1.1 81 1.2 W 4 7 2 4 1015.8 1016.6 0.0
19/05:30pm 4.9 1.3 0.7 74 1.7 SW 9 11 5 6 1015.6 1016.4 0.0
19/05:00pm 5.9 0.9 1.2 72 1.9 WSW 17 20 9 11 1015.1 1015.9 0.0
19/04:47pm 6.2 1.6 1.5 72 2.0 SW 15 22 8 12 1015.1 1015.9 0.0
19/04:30pm 6.8 -0.2 -0.2 61 2.8 SW 26 39 14 21 1014.8 1015.6 0.0
19/04:28pm 7.4 0.9 0.2 60 2.9 WSW 24 39 13 21 1015.0 1015.8 0.0
19/04:00pm 8.8 1.9 -2.5 45 4.4 WSW 24 35 13 19 1013.5 1014.3 0.0
19/03:30pm 9.9 1.9 -2.4 42 4.8 WSW 30 41 16 22 1013.5 1014.3 0.0
19/03:00pm 8.9 2.0 -2.7 44 4.5 W 24 39 13 21 1013.2 1014.0 0.0
19/02:33pm 9.1 0.6 -1.6 47 4.3 W 33 52 18 28 1012.6 1013.3 0.0
19/02:30pm 8.7 0.4 -1.7 48 4.1 W 32 43 17 23 1012.6 1013.3 0.0
19/02:00pm 8.5 0.2 -1.9 48 4.1 WNW 32 43 17 23 1012.3 1013.1 0.0
19/01:30pm 9.7 1.3 -1.1 47 4.4 WNW 33 46 18 25 1012.2 1013.0 0.0
19/01:01pm 9.6 1.4 -0.9 48 4.3 WNW 32 50 17 27 1011.9 1012.7 0.0
19/01:00pm 9.6 1.2 -1.1 47 4.3 WNW 33 50 18 27 1011.9 1012.7 0.0
19/12:30pm 8.5 0.1 -1.3 50 3.9 WNW 33 46 18 25 1012.3 1013.1 0.0
19/12:00pm 9.0 1.2 -1.1 49 4.1 WNW 30 41 16 22 1012.2 1013.0 0.0
19/11:30am 9.2 1.4 -0.9 49 4.1 W 30 39 16 21 1012.3 1013.1 0.0
19/11:00am 7.9 0.9 -0.6 55 3.4 WNW 26 39 14 21 1012.8 1013.5 0.0
19/10:30am 8.6 1.3 -0.2 54 3.6 WNW 28 43 15 23 1012.7 1013.4 0.0
19/10:00am 8.3 1.0 -0.2 55 3.5 WNW 28 35 15 19 1012.3 1013.1 0.0
19/09:30am 6.7 -0.7 -0.5 60 2.9 NW 28 41 15 22 1012.5 1013.2 0.0
19/09:00am 5.8 -1.0 -1.6 59 2.8 NW 24 39 13 21 1012.5 1013.2 3.4
19/08:30am 5.8 -1.5 -0.3 65 2.4 NW 28 37 15 20 1012.0 1012.8 3.4
19/08:00am 5.2 -2.3 -1.3 63 2.5 WNW 28 39 15 21 1012.1 1012.9 3.4
19/07:30am 4.4 -1.5 -1.0 68 2.1 NW 20 28 11 15 1011.7 1012.5 3.4
19/07:00am 3.5 -1.1 -0.9 73 1.7 NW 13 20 7 11 1011.9 1012.7 3.4
19/06:30am 3.4 -1.6 -1.2 72 1.7 WNW 15 24 8 13 1011.6 1012.4 3.2
19/06:00am 3.8 -1.9 -0.8 72 1.8 WNW 19 28 10 15 1011.0 1011.7 3.2
19/05:30am 3.5 -3.1 -0.5 75 1.5 WNW 24 32 13 17 1010.7 1011.4 3.2
19/05:00am 3.5 -3.9 -0.7 74 1.6 WNW 28 37 15 20 1010.5 1011.3 3.2
19/04:30am 3.4 -4.0 -0.6 75 1.5 NW 28 41 15 22 1010.5 1011.3 3.2
19/04:00am 3.2 -4.1 -0.3 78 1.3 NW 28 37 15 20 1010.5 1011.3 3.2
19/03:30am 3.4 -3.1 0.1 79 1.3 NW 24 41 13 22 1010.4 1011.2 3.2
19/03:00am 3.0 -3.6 -0.1 80 1.2 NW 24 33 13 18 1010.4 1011.2 3.2
19/02:30am 3.9 -3.8 -0.3 74 1.6 NW 30 39 16 21 1010.5 1011.3 3.2
19/02:00am 3.8 -2.0 -0.4 74 1.6 WNW 20 28 11 15 1010.7 1011.4 3.2
19/01:44am 4.1 -3.6 -0.1 74 1.6 WNW 30 50 16 27 1010.9 1011.6 3.2
19/01:30am 3.6 -2.9 0.5 80 1.2 WNW 24 35 13 19 1011.1 1011.8 3.2
19/01:00am 3.8 -2.6 1.2 83 1.0 NW 24 32 13 17 1011.4 1012.1 3.2
19/12:53am 3.6 -3.1 1.2 84 1.0 NW 26 33 14 18 1011.4 1012.1 3.2
19/12:30am 3.7 -2.2 1.6 86 0.9 NNW 22 28 12 15 1011.3 1012.0 3.0
19/12:00am 4.6 -1.9 0.6 75 1.6 NW 24 32 13 17 1011.5 1012.2 3.0
 
Date/Time
EST
Temp
°C
App
Temp
°C
Dew
Point
°C
Rel
Hum
%
Delta-T
°C
Wind Press
QNH
hPa
Press
MSL
hPa
Rain since
9am
mm
Dir  Spd
km/h
Gust
km/h
Spd
kts
Gust
kts
18/11:30pm 4.4 -0.6 1.1 79 1.3 NNW 17 19 9 10 1011.5 1012.2 3.0
18/11:00pm 4.4 0.1 1.1 79 1.3 WNW 13 19 7 10 1011.9 1012.7 3.0
18/10:30pm 5.1 -0.9 0.9 74 1.7 WNW 22 44 12 24 1012.0 1012.8 3.0
18/10:00pm 5.0 0.4 1.5 78 1.4 NW 15 22 8 12 1011.7 1012.5 2.8
18/09:30pm 5.0 -0.9 1.7 79 1.4 NW 22 39 12 21 1011.5 1012.2 2.8
18/09:00pm 4.3 -1.6 1.8 84 1.0 WNW 22 39 12 21 1011.6 1012.4 2.8
18/08:53pm 4.5 -2.1 2.0 84 1.0 NW 26 39 14 21 1011.5 1012.2 2.8
18/08:30pm 3.5 -1.1 1.5 87 0.8 NW 15 20 8 11 1011.7 1012.5 2.8
18/08:14pm 4.2 -2.5 1.7 84 1.0 WNW 26 37 14 20 1011.7 1012.5 2.6
18/08:00pm 4.8 0.4 2.5 85 1.0 WNW 15 26 8 14 1012.0 1012.8 2.6
18/07:30pm 4.7 -1.0 2.6 86 0.9 WNW 22 32 12 17 1011.5 1012.2 2.2
18/07:10pm 5.2 -2.4 2.7 84 1.1 WNW 32 50 17 27 1011.5 1012.2 2.2
18/07:00pm 5.4 -0.7 2.8 83 1.1 WNW 24 41 13 22 1011.3 1012.0 2.0
18/06:58pm 5.4 -0.3 2.8 83 1.1 NW 22 41 12 22 1011.3 1012.0 2.0
18/06:30pm 4.9 0.9 2.6 85 1.0 NNW 13 19 7 10 1010.7 1011.4 2.0
18/06:29pm 5.0 1.0 2.9 86 0.9 NNW 13 24 7 13 1010.7 1011.4 2.0
18/06:17pm 4.9 -0.8 2.8 86 0.9 NW 22 33 12 18 1010.5 1011.3 2.0
18/06:00pm 5.1 -1.7 3.3 88 0.8 WNW 28 48 15 26 1010.7 1011.4 1.6
18/05:36pm 6.4 -0.5 2.3 75 1.7 WNW 28 56 15 30 1010.1 1010.9 0.8
18/05:30pm 6.7 0.1 2.2 73 1.9 WNW 26 35 14 19 1010.1 1010.9 0.8
18/05:02pm 7.9 0.7 0.9 61 2.9 WNW 28 54 15 29 1009.6 1010.3 0.8
18/05:00pm 8.1 1.3 0.8 60 3.0 WNW 26 44 14 24 1009.5 1010.2 0.8
18/04:30pm 9.0 4.1 1.7 60 3.1 WNW 17 26 9 14 1009.1 1009.8 0.8
18/04:00pm 8.6 1.6 1.7 62 3.0 W 28 43 15 23 1009.0 1009.7 0.8
18/03:47pm 8.0 -0.1 1.2 62 2.9 W 33 50 18 27 1009.0 1009.7 0.8
18/03:34pm 8.0 1.0 1.8 65 2.6 WSW 28 46 15 25 1008.8 1009.5 0.8
18/03:30pm 7.9 0.9 2.0 66 2.5 WSW 28 37 15 20 1008.6 1009.4 0.8
18/03:00pm 8.5 3.0 3.8 72 2.1 NW 22 33 12 18 1008.4 1009.1 0.8
18/02:44pm 8.4 1.8 4.0 74 2.0 NW 28 48 15 26 1008.3 1009.0 0.8
18/02:30pm 8.6 1.0 4.0 73 2.1 NW 33 50 18 27 1008.1 1008.8 0.8
18/02:25pm 8.6 1.5 3.4 70 2.3 NW 30 48 16 26 1008.1 1008.8 0.8
18/02:00pm 8.8 2.4 3.4 69 2.4 NW 26 37 14 20 1008.0 1008.7 0.8
18/01:44pm 8.5 1.4 3.4 70 2.3 NW 30 48 16 26 1008.1 1008.8 0.8
18/01:30pm 8.8 2.2 4.0 72 2.2 NW 28 39 15 21 1008.1 1008.8 0.6
18/01:00pm 8.1 1.6 4.7 79 1.6 NW 28 37 15 20 1008.5 1009.2 0.6
18/12:30pm 7.0 1.2 4.5 84 1.1 W 24 30 13 16 1009.3 1010.0 0.6
18/12:16pm 7.9 1.6 3.6 74 1.9 NW 26 35 14 19 1009.2 1009.9 0.4
18/12:00pm 7.9 1.6 3.9 76 1.8 NW 26 33 14 18 1009.1 1009.8 0.4
18/11:30am 7.1 -2.1 3.3 77 1.7 NW 41 59 22 32 1009.9 1010.6 0.4
18/11:20am 7.7 0.1 3.0 72 2.1 NW 32 52 17 28 1010.1 1010.9 0.0
18/11:00am 9.8 2.6 3.1 63 3.0 NW 30 41 16 22 1009.5 1010.2 0.0
18/10:30am 7.9 0.2 3.6 74 1.9 NW 33 48 18 26 1010.0 1010.7 0.0
18/10:21am 8.3 -0.1 1.5 62 2.9 NW 35 50 19 27 1010.4 1011.2 0.0
18/10:00am 9.6 1.5 0.8 54 3.7 NW 33 48 18 26 1010.3 1011.1 0.0
18/09:30am 10.1 3.0 1.5 55 3.7 NNW 28 35 15 19 1010.3 1011.1 0.0
18/09:16am 9.0 2.5 0.2 54 3.6 NW 24 39 13 21 1010.5 1011.3 0.0
18/09:00am 9.1 4.7 0.6 55 3.6 NNW 13 19 7 10 1010.5 1011.3 0.0
18/08:30am 7.6 3.5 0.1 59 3.1 NNW 11 19 6 10 1011.1 1011.8 0.0
18/08:00am 6.9 1.1 0.1 62 2.8 N 20 30 11 16 1011.3 1012.0 0.0
18/07:30am 5.4 -0.4 0.0 68 2.1 N 20 28 11 15 1011.3 1012.0 0.0
18/07:00am 4.7 -1.1 -0.3 70 2.0 N 20 24 11 13 1011.4 1012.1 0.0
18/06:30am 4.7 -1.1 -0.3 70 2.0 NNW 20 26 11 14 1011.3 1012.0 0.0
18/06:00am 3.2 -0.8 0.6 83 1.0 NW 11 19 6 10 1011.2 1011.9 0.0
18/05:30am -0.1 -4.1 -2.3 85 0.8 S 9 13 5 7 1011.3 1012.0 0.0
18/05:00am 0.9 -2.4 -1.5 84 0.9 SSE 6 7 3 4 1011.3 1012.0 0.0
18/04:30am 3.0 0.1 -1.0 75 1.5 S 4 7 2 4 1011.5 1012.2 0.0
18/04:00am 3.3 1.2 -0.5 76 1.5 CALM 0 0 0 0 1011.6 1012.4 0.0
18/03:30am 2.0 -0.7 -2.1 74 1.5 SSW 2 7 1 4 1011.9 1012.7 0.0
18/03:00am -0.2 -3.4 -3.7 77 1.2 WNW 4 9 2 5 1012.2 1013.0 0.0
18/02:30am 2.3 -1.0 -1.0 79 1.2 NNW 6 9 3 5 1012.7 1013.4 0.0
18/02:00am 4.0 0.0 0.5 78 1.4 NNW 11 13 6 7 1013.0 1013.7 0.0
18/01:30am 3.6 1.3 0.3 79 1.3 SSE 2 7 1 4 1013.3 1014.1 0.0
18/01:00am 3.2 0.2 0.8 84 0.9 SSE 6 7 3 4 1013.4 1014.2 0.0
18/12:30am 2.1 -1.3 -0.6 82 1.0 SE 7 9 4 5 1013.2 1014.0 0.0
18/12:00am 2.3 -0.4 0.0 85 0.9 N 4 9 2 5 1013.5 1014.3 0.0
 
Date/Time
EST
Temp
°C
App
Temp
°C
Dew
Point
°C
Rel
Hum
%
Delta-T
°C
Wind Press
QNH
hPa
Press
MSL
hPa
Rain since
9am
mm
Dir  Spd
km/h
Gust
km/h
Spd
kts
Gust
kts
17/11:30pm 2.9 -0.5 -0.4 79 1.3 N 7 9 4 5 1013.6 1014.4 0.0
17/11:00pm 2.0 -0.1 -0.9 81 1.1 CALM 0 2 0 1 1013.8 1014.6 0.0
17/10:30pm 2.1 -1.0 0.0 86 0.8 N 6 7 3 4 1014.1 1014.9 0.0
17/10:00pm 3.1 -0.1 -0.2 79 1.3 N 6 11 3 6 1014.4 1015.1 0.0
17/09:30pm 4.2 1.0 -0.4 72 1.8 NNW 6 11 3 6 1014.5 1015.3 0.0
17/09:00pm 5.5 1.8 -0.1 67 2.2 NW 9 13 5 7 1014.4 1015.1 0.0
17/08:30pm 4.0 0.8 -0.8 71 1.8 NW 6 11 3 6 1014.4 1015.1 0.0
17/08:00pm 4.8 1.0 -0.8 67 2.2 NW 9 11 5 6 1014.6 1015.4 0.0
17/07:30pm 4.9 0.3 -0.9 66 2.2 NW 13 17 7 9 1014.7 1015.5 0.0
17/07:00pm 6.0 1.4 -0.9 61 2.7 NW 13 17 7 9 1014.6 1015.4 0.0
17/06:30pm 7.9 2.6 -0.8 54 3.5 WNW 17 19 9 10 1014.6 1015.4 0.0
17/06:00pm 8.4 3.8 -1.1 51 3.8 W 13 17 7 9 1014.1 1014.9 0.0
17/05:30pm 9.1 4.0 -1.6 47 4.3 WNW 15 20 8 11 1013.9 1014.7 0.0
17/05:00pm 9.7 3.9 -1.6 45 4.5 W 19 30 10 16 1013.7 1014.5 0.0
17/04:30pm 9.9 3.4 -2.1 43 4.8 WSW 22 32 12 17 1013.6 1014.4 0.0
17/04:00pm 10.2 3.8 -1.8 43 4.8 W 22 30 12 16 1013.4 1014.2 0.0
17/03:30pm 10.3 2.3 -2.4 41 5.0 WNW 30 41 16 22 1013.3 1014.1 0.0
17/03:00pm 10.7 3.5 -2.3 40 5.2 WNW 26 37 14 20 1013.2 1014.0 0.0
17/02:30pm 12.3 4.6 -2.7 35 6.0 WNW 28 35 15 19 1013.2 1014.0 0.0
17/02:00pm 12.6 4.5 -3.2 33 6.3 WNW 30 41 16 22 1013.2 1014.0 0.0
17/01:30pm 12.3 4.9 -3.5 33 6.2 WNW 26 37 14 20 1013.2 1014.0 0.0
17/01:00pm 11.3 3.9 -3.6 35 5.8 WNW 26 37 14 20 1013.5 1014.3 0.0
17/12:30pm 11.4 5.2 -3.5 35 5.8 WNW 20 28 11 15 1014.0 1014.8 0.0
17/12:00pm 11.3 5.7 -2.8 37 5.6 WNW 17 28 9 15 1014.6 1015.4 0.0
17/11:30am 10.9 7.0 -1.8 41 5.1 WNW 9 15 5 8 1015.0 1015.8 0.0
17/11:00am 9.3 5.6 -2.6 43 4.6 NW 7 13 4 7 1015.5 1016.3 0.0
17/10:30am 8.3 5.3 -1.5 50 3.9 N 4 9 2 5 1015.8 1016.6 0.0
17/10:00am 6.5 3.3 -0.7 60 2.8 NNW 6 9 3 5 1016.0 1016.9 0.0
17/09:30am 4.7 2.7 -0.1 71 1.9 CALM 0 0 0 0 1016.2 1017.0 0.0
17/09:00am 2.7 0.1 -1.5 74 1.6 NNE 2 7 1 4 1016.4 1017.2 0.0
17/08:30am 0.7 -1.5 -1.7 84 0.9 CALM 0 0 0 0 1016.3 1017.1 0.0
17/08:00am -0.4 -2.7 -2.1 88 0.6 CALM 0 0 0 0 1016.3 1017.1 0.0
17/07:30am -3.3 -5.8 -4.3 93 0.2 CALM 0 0 0 0 1016.4 1017.2 0.0
17/07:00am -4.4 -7.0 -5.1 95 0.0 CALM 0 0 0 0 1015.8 1016.6 0.0
17/06:30am -4.3 -6.9 -5.3 93 0.1 CALM 0 0 0 0 1015.6 1016.4 0.0
17/06:00am -3.8 -7.1 -4.3 96 0.0 ESE 4 6 2 3 1015.2 1016.0 0.0
17/05:30am -4.3 -7.3 -5.1 94 0.1 SSW 2 7 1 4 1015.1 1015.9 0.0
17/05:00am -3.5 -6.0 -4.3 94 0.1 CALM 0 0 0 0 1014.9 1015.7 0.0
17/04:30am -3.5 -6.1 -4.5 93 0.2 CALM 0 0 0 0 1014.7 1015.5 0.0
17/04:00am -3.6 -6.5 -4.6 93 0.2 NW 2 7 1 4 1014.5 1015.3 0.0
17/03:30am -3.9 -6.6 -5.7 87 0.4 CALM 0 0 0 0 1014.7 1015.5 0.0
17/03:00am -2.8 -6.4 -3.8 93 0.2 SE 6 7 3 4 1014.9 1015.7 0.0
17/02:30am -2.0 -4.4 -3.1 92 0.3 CALM 0 0 0 0 1014.9 1015.7 0.0
17/02:00am -2.2 -5.0 -3.6 90 0.4 SE 2 6 1 3 1015.0 1015.8 0.0
17/01:30am -1.6 -4.7 -3.0 90 0.4 SE 4 9 2 5 1015.1 1015.9 0.0
17/01:00am -1.3 -5.3 -2.6 91 0.4 SE 9 9 5 5 1014.8 1015.6 0.0
17/12:30am -1.1 -5.1 -2.5 90 0.4 ESE 9 11 5 6 1015.0 1015.8 0.0
17/12:00am -0.4 -4.0 -2.3 87 0.7 ESE 7 9 4 5 1014.9 1015.7 0.0
 
Date/Time
EST
Temp
°C
App
Temp
°C
Dew
Point
°C
Rel
Hum
%
Delta-T
°C
Wind Press
QNH
hPa
Press
MSL
hPa
Rain since
9am
mm
Dir  Spd
km/h
Gust
km/h
Spd
kts
Gust
kts
16/11:30pm -0.1 -3.2 -2.3 85 0.8 ENE 4 9 2 5 1014.9 1015.7 0.0
16/11:00pm -1.0 -4.6 -4.0 80 1.0 NNE 6 9 3 5 1014.9 1015.7 0.0
16/10:30pm 2.2 -0.1 -2.1 73 1.6 CALM 0 0 0 0 1015.0 1015.8 0.0
16/10:00pm 2.6 -1.3 -1.6 74 1.5 NE 9 11 5 6 1015.0 1015.8 0.0
16/09:30pm 2.3 -1.6 -1.8 74 1.5 NE 9 11 5 6 1015.0 1015.8 0.0
16/09:00pm 3.9 1.4 -1.3 69 2.0 NNE 2 7 1 4 1014.7 1015.5 0.0
16/08:30pm 3.6 1.4 -1.5 69 1.9 CALM 0 0 0 0 1014.5 1015.3 0.0
16/08:00pm 5.0 0.8 -1.2 64 2.4 NW 11 17 6 9 1014.1 1014.9 0.0

Latest Capital City Observations: Canberra | Sydney | Melbourne | Brisbane | Adelaide | Perth | Hobart | Darwin

Other Formats:

Comma delimited format used in spreadsheet applications
http://www.bom.gov.au/fwo/IDN60903/IDN60903.94926.axf

JavaScript Object Notation format (JSON) in row-major order
http://www.bom.gov.au/fwo/IDN60903/IDN60903.94926.json